Bavaro, Dominican Republic
Current Conditions -  °F | °C
As of 11:00 PM on Tuesday 25 Nov 2014 (Local Time) from MDPC Reporting Station
Scattered Clouds Scattered Clouds  
Wind Chill: 81°   Ceiling: Unl
Heat Index: 85°   Visibility: 6mi
Dew Point: 72°   Wind: 12mph
Humidity: 74%   Direction: 120°ESE
Pressure: 30.03"   Gusts: NA
Location:  18.72°N, 68.45°W
Report Text: MDPC 260300Z 12010KT 9999 SCT018 27/22 Q1017 NOSIG
Loading
Personal Weather Stations






























Interactive Weather Map New forecast layout! Learn more

10-Day Weather Forecast

Advertisements
Track Severe Weather on mobile